»·PEaware :: SWA1180 KBOI-KSFO

SWA1180 :: KBOI-KSFO

FLIGHT INFORMATION

Flight Status: Arrived
Operator:
Southwest Airlines
More flights by this operator :: More flights under this callsign
Pilot: Anonymous 10181 (10181)
Aircraft: BOEING 727-200
(B722)
More flights by this aircraft type
Origin: KBOI Boise Air Terminal/Gowen
United States
Destination: KSFO San Francisco Intl
United States
More flights between these airports :: More routes between these airports
Route: +BOI3 BOI J7 FMG MOD9
File this flight plan on PilotEdge
Remarks: Happy Saturday!
Altitude:
(Current/Filed)
30,000ft
Speed:
(Current/Filed)
468kts
Departed: 21-Nov-20 05:39 PM
Arrived: 21-Nov-20 07:00 PM
Distance/Time
Traveled:
454nm/1:21
Distance/Time
To Go:
Arrived

Flight Plot

Page will automatically refresh every two minutes.

Flight plan parsing failed; only flown route is shown


Map Options




Map Legend


Flown Route
Filed Route
Departure Airport
Arrival Airport
Navaid (VOR, NDB)
Fix

Horizontal Profiles

Position Reports

Time Latitude Longitude Heading Altitude Ground
Speed
21-Nov-20 16:55 43.567822 -116.219599 219 2857ft 0kts
21-Nov-20 16:56 43.567822 -116.219599 219 2857ft 0kts
21-Nov-20 16:57 43.567822 -116.219599 219 2857ft 0kts
21-Nov-20 16:58 43.567822 -116.219599 219 2857ft 0kts
21-Nov-20 16:59 43.567822 -116.219599 219 2857ft 0kts
21-Nov-20 17:00 43.567822 -116.219599 219 2857ft 0kts
21-Nov-20 17:01 43.567822 -116.219599 219 2857ft 0kts
21-Nov-20 17:02 43.567822 -116.219599 219 2857ft 0kts
21-Nov-20 17:03 43.567822 -116.219599 219 2857ft 0kts
21-Nov-20 17:04 43.567822 -116.219599 219 2857ft 0kts
21-Nov-20 17:05 43.567822 -116.219599 219 2857ft 0kts
21-Nov-20 17:06 43.567822 -116.219599 219 2857ft 0kts
21-Nov-20 17:07 43.567822 -116.219599 219 2857ft 0kts
21-Nov-20 17:08 43.567822 -116.219599 219 2857ft 0kts
21-Nov-20 17:09 43.567822 -116.219599 219 2857ft 0kts
21-Nov-20 17:10 43.567823 -116.219598 219 2857ft 0kts
21-Nov-20 17:11 43.567823 -116.219598 219 2857ft 0kts
21-Nov-20 17:12 43.567823 -116.219598 219 2857ft 0kts
21-Nov-20 17:13 43.567823 -116.219598 219 2857ft 0kts
21-Nov-20 17:14 43.567823 -116.219598 219 2857ft 0kts
21-Nov-20 17:15 43.567823 -116.219598 219 2857ft 0kts
21-Nov-20 17:16 43.567822 -116.219599 219 2857ft 0kts
21-Nov-20 17:17 43.567823 -116.219599 219 2857ft 0kts
21-Nov-20 17:18 43.567823 -116.219599 219 2857ft 0kts
21-Nov-20 17:19 43.568057 -116.219086 250 2857ft 2kts
21-Nov-20 17:20 43.568078 -116.218279 282 2858ft 1kts
21-Nov-20 17:21 43.567845 -116.217780 232 2858ft 1kts
21-Nov-20 17:22 43.567363 -116.217483 167 2859ft 2kts
21-Nov-20 17:23 43.567304 -116.217477 175 2859ft 0kts
21-Nov-20 17:24 43.567304 -116.217477 175 2859ft 0kts
21-Nov-20 17:25 43.567304 -116.217477 175 2859ft 0kts
21-Nov-20 17:26 43.567304 -116.217477 175 2859ft 0kts
21-Nov-20 17:27 43.567304 -116.217477 175 2859ft 0kts
21-Nov-20 17:28 43.567225 -116.217468 175 2859ft 4kts
21-Nov-20 17:29 43.566251 -116.219591 296 2858ft 12kts
21-Nov-20 17:30 43.566628 -116.221090 247 2856ft 0kts
21-Nov-20 17:31 43.566628 -116.221090 247 2856ft 0kts
21-Nov-20 17:32 43.566458 -116.222063 273 2856ft 13kts
21-Nov-20 17:33 43.568464 -116.228211 295 2849ft 21kts
21-Nov-20 17:34 43.570971 -116.235740 277 2837ft 6kts
21-Nov-20 17:35 43.570969 -116.236011 263 2836ft 0kts
21-Nov-20 17:36 43.570138 -116.236597 136 2836ft 7kts
21-Nov-20 17:37 43.569641 -116.235220 115 2838ft 0kts
21-Nov-20 17:38 43.567325 -116.228459 115 2849ft 102kts
21-Nov-20 17:39 43.549029 -116.174521 116 4123ft 182kts
21-Nov-20 17:40 43.525376 -116.103765 114 6256ft 233kts
21-Nov-20 17:41 43.495709 -116.015641 115 8631ft 264kts
21-Nov-20 17:42 43.461552 -115.921127 116 11112ft 282kts
21-Nov-20 17:43 43.397889 -115.872700 217 12402ft 320kts
21-Nov-20 17:44 43.370650 -115.972438 262 15353ft 288kts
21-Nov-20 17:45 43.358636 -116.084517 264 17461ft 296kts
21-Nov-20 17:46 43.345276 -116.205126 264 18874ft 341kts
21-Nov-20 17:47 43.330390 -116.337718 264 21014ft 358kts
21-Nov-20 17:48 43.314581 -116.474605 264 22910ft 374kts
21-Nov-20 17:50 43.294377 -116.620406 246 22998ft 405kts
21-Nov-20 17:51 43.221744 -116.745330 231 22997ft 430kts
21-Nov-20 17:52 43.144819 -116.874593 235 22995ft 448kts
21-Nov-20 17:53 43.066917 -117.011997 235 22966ft 467kts
21-Nov-20 17:54 42.987121 -117.153719 235 23831ft 475kts
21-Nov-20 17:55 42.907153 -117.297324 239 25737ft 472kts
21-Nov-20 17:56 42.838350 -117.447957 241 27635ft 465kts
21-Nov-20 17:57 42.771506 -117.595911 241 29528ft 453kts
21-Nov-20 17:58 42.704707 -117.743946 241 30395ft 462kts
21-Nov-20 17:59 42.636591 -117.896095 241 30450ft 487kts
21-Nov-20 18:00 42.523637 -117.994538 191 30441ft 522kts
21-Nov-20 18:01 42.379232 -118.019814 189 30434ft 521kts
21-Nov-20 18:02 42.239186 -118.058257 197 30434ft 514kts
21-Nov-20 18:03 42.109703 -118.135062 208 30433ft 507kts
21-Nov-20 18:04 41.983213 -118.217999 208 30428ft 506kts
21-Nov-20 18:04 41.877877 -118.286968 208 30423ft 506kts
21-Nov-20 18:06 41.729324 -118.380696 206 30424ft 506kts
21-Nov-20 18:07 41.600731 -118.456858 206 30424ft 505kts
21-Nov-20 18:07 41.493897 -118.519861 206 30424ft 504kts
21-Nov-20 18:09 41.345102 -118.607085 206 30413ft 501kts
21-Nov-20 18:09 41.239089 -118.668686 206 30405ft 499kts
21-Nov-20 18:11 41.090872 -118.754170 206 30406ft 498kts
21-Nov-20 18:11 40.985184 -118.814750 206 30405ft 497kts
21-Nov-20 18:12 40.858659 -118.886958 206 30396ft 496kts
21-Nov-20 18:13 40.731757 -118.959036 206 30397ft 495kts
21-Nov-20 18:14 40.605680 -119.030061 206 30397ft 494kts
21-Nov-20 18:15 40.479771 -119.100535 206 30396ft 492kts
21-Nov-20 18:16 40.353890 -119.170782 206 30396ft 491kts
21-Nov-20 18:17 40.228494 -119.240478 206 30397ft 490kts
21-Nov-20 18:18 40.107936 -119.320956 211 30393ft 486kts
21-Nov-20 18:19 39.988558 -119.404232 211 30388ft 485kts
21-Nov-20 18:20 39.869386 -119.486425 210 30384ft 483kts
21-Nov-20 18:21 39.743487 -119.548426 203 30378ft 485kts
21-Nov-20 18:22 39.616575 -119.606702 203 30373ft 485kts
21-Nov-20 18:23 39.492685 -119.673568 207 30390ft 480kts
21-Nov-20 18:24 39.370979 -119.745234 208 30388ft 480kts
21-Nov-20 18:25 39.249480 -119.816313 208 30387ft 480kts
21-Nov-20 18:26 39.128065 -119.886639 208 30388ft 479kts
21-Nov-20 18:27 38.998088 -119.921582 185 30385ft 491kts
21-Nov-20 18:28 38.861372 -119.924439 190 30368ft 487kts
21-Nov-20 18:29 38.726541 -119.941159 191 30370ft 486kts
21-Nov-20 18:30 38.592501 -119.957867 195 30365ft 480kts
21-Nov-20 18:31 38.467653 -120.008322 204 30368ft 470kts
21-Nov-20 18:32 38.344107 -120.062433 204 30312ft 470kts
21-Nov-20 18:33 38.220642 -120.116241 204 30253ft 470kts
21-Nov-20 18:34 38.097347 -120.169819 204 30226ft 469kts
21-Nov-20 18:35 37.974189 -120.222988 204 30195ft 468kts
21-Nov-20 18:36 37.850953 -120.275942 204 30189ft 467kts
21-Nov-20 18:37 37.727874 -120.328287 203 30195ft 467kts
21-Nov-20 18:38 37.648847 -120.434724 261 29906ft 417kts
21-Nov-20 18:39 37.649011 -120.576629 269 27923ft 401kts
21-Nov-20 18:40 37.651446 -120.717001 268 25324ft 400kts
21-Nov-20 18:41 37.652852 -120.855603 268 24197ft 396kts
21-Nov-20 18:42 37.643470 -120.991079 255 22114ft 390kts
21-Nov-20 18:43 37.618856 -121.121562 256 19585ft 372kts
21-Nov-20 18:44 37.595684 -121.246490 256 15696ft 362kts
21-Nov-20 18:45 37.572529 -121.367074 256 12107ft 349kts
21-Nov-20 18:46 37.555103 -121.481885 260 10019ft 306kts
21-Nov-20 18:47 37.537876 -121.598682 260 10014ft 374kts
21-Nov-20 18:48 37.519155 -121.726409 259 10000ft 366kts
21-Nov-20 18:49 37.494047 -121.844470 252 9141ft 339kts
21-Nov-20 18:50 37.463883 -121.956473 252 7718ft 326kts
21-Nov-20 18:51 37.441399 -122.053867 258 7288ft 254kts
21-Nov-20 18:52 37.472435 -122.108460 332 6862ft 190kts
21-Nov-20 18:53 37.519514 -122.141598 323 5261ft 192kts
21-Nov-20 18:54 37.540483 -122.199570 297 3780ft 182kts
21-Nov-20 18:55 37.562913 -122.251686 303 2457ft 160kts
21-Nov-20 18:56 37.578538 -122.301265 265 1882ft 168kts
21-Nov-20 18:57 37.572059 -122.362205 262 1705ft 169kts
21-Nov-20 18:58 37.595266 -122.392526 34 522ft 147kts
21-Nov-20 18:59 37.619231 -122.375433 27 21ft 38kts
21-Nov-20 19:00 37.622496 -122.375108 254 20ft 0kts
21-Nov-20 19:01 37.622496 -122.375108 254 20ft 0kts
21-Nov-20 19:02 37.622496 -122.375108 254 20ft 0kts
21-Nov-20 19:03 37.621308 -122.376928 229 20ft 22kts
21-Nov-20 19:04 37.617168 -122.383130 230 20ft 25kts
21-Nov-20 19:05 37.616921 -122.383676 260 21ft 0kts

Navigation Log

Ident Type
Flight plan parsing failed, navigation log unavailable